Terminal Aerodrome Forecast
Issued by NWS Green Bay, WI

Home | Current Version | Previous Version | Graphics & Text | Print | Product List | Glossary On
Versions: 1 2 3 4 5 6 7 8 9 10 11 12 13 14 15 16 17 18 19 20 21 22 23 24 25 26 27 28 29 30 31 32 33 34 35 36 37 38 39 40
770
FTUS43 KGRB 201131
TAFGRB
TAF
KGRB 201131Z 2012/2112 14009G15KT P6SM SCT004 BKN200
      TEMPO 2012/2015 4SM BR BKN004
     FM201600 16012G18KT P6SM SCT012 BKN100
     FM202100 18012G18KT 6SM -SHRA VCTS OVC040CB
     FM210300 19004KT P6SM VCTS BKN040CB
     FM210600 VRB03KT P6SM BKN030
     FM210800 34005KT 5SM BR SCT020
     FM211000 03006KT 3SM BR BKN012=

USA.gov is the U.S. government's official web portal to all federal, state and local government web resources and services.